sensor_id;sensor_type;location;lat;lon;timestamp;temperature;humidity
9448;DHT22;4762;48.128;11.376;2023-02-28T00:01:22;-3.40;99.90
9448;DHT22;4762;48.128;11.376;2023-02-28T00:03:24;-3.40;99.90
9448;DHT22;4762;48.128;11.376;2023-02-28T00:05:26;-3.50;99.90
9448;DHT22;4762;48.128;11.376;2023-02-28T00:07:30;-3.50;99.90
9448;DHT22;4762;48.128;11.376;2023-02-28T00:09:32;-3.50;99.90
9448;DHT22;4762;48.128;11.376;2023-02-28T00:11:34;-3.50;99.90
9448;DHT22;4762;48.128;11.376;2023-02-28T00:13:38;-3.40;99.90
9448;DHT22;4762;48.128;11.376;2023-02-28T00:15:40;-3.50;99.90
9448;DHT22;4762;48.128;11.376;2023-02-28T00:17:42;-3.50;99.90
9448;DHT22;4762;48.128;11.376;2023-02-28T00:19:44;-3.60;99.90
9448;DHT22;4762;48.128;11.376;2023-02-28T00:21:46;-3.60;99.90
9448;DHT22;4762;48.128;11.376;2023-02-28T00:23:49;-3.50;99.90
9448;DHT22;4762;48.128;11.376;2023-02-28T00:25:51;-3.50;99.90
9448;DHT22;4762;48.128;11.376;2023-02-28T00:27:53;-3.50;99.90
9448;DHT22;4762;48.128;11.376;2023-02-28T00:29:56;-3.60;99.90
9448;DHT22;4762;48.128;11.376;2023-02-28T00:31:58;-3.70;99.90
9448;DHT22;4762;48.128;11.376;2023-02-28T00:34:01;-3.70;99.90
9448;DHT22;4762;48.128;11.376;2023-02-28T00:36:04;-3.70;99.90
9448;DHT22;4762;48.128;11.376;2023-02-28T00:38:06;-3.70;99.90
9448;DHT22;4762;48.128;11.376;2023-02-28T00:40:09;-3.70;99.90
9448;DHT22;4762;48.128;11.376;2023-02-28T00:42:11;-3.70;99.90
9448;DHT22;4762;48.128;11.376;2023-02-28T00:44:13;-3.60;99.90
9448;DHT22;4762;48.128;11.376;2023-02-28T00:46:16;-3.70;99.90
9448;DHT22;4762;48.128;11.376;2023-02-28T00:48:18;-3.80;99.90
9448;DHT22;4762;48.128;11.376;2023-02-28T00:50:20;-3.80;99.90
9448;DHT22;4762;48.128;11.376;2023-02-28T00:52:22;-3.80;99.90
9448;DHT22;4762;48.128;11.376;2023-02-28T00:54:25;-3.80;99.90
9448;DHT22;4762;48.128;11.376;2023-02-28T00:56:27;-3.90;99.90
9448;DHT22;4762;48.128;11.376;2023-02-28T00:58:29;-3.90;99.90
9448;DHT22;4762;48.128;11.376;2023-02-28T01:00:31;-3.90;99.90
9448;DHT22;4762;48.128;11.376;2023-02-28T01:02:34;-3.90;99.90
9448;DHT22;4762;48.128;11.376;2023-02-28T01:04:36;-3.90;99.90
9448;DHT22;4762;48.128;11.376;2023-02-28T01:06:38;-3.90;99.90
9448;DHT22;4762;48.128;11.376;2023-02-28T01:08:41;-3.90;99.90
9448;DHT22;4762;48.128;11.376;2023-02-28T01:10:43;-4.00;99.90
9448;DHT22;4762;48.128;11.376;2023-02-28T01:12:45;-3.90;99.90
9448;DHT22;4762;48.128;11.376;2023-02-28T01:14:47;-3.90;99.90
9448;DHT22;4762;48.128;11.376;2023-02-28T01:16:50;-4.00;99.90
9448;DHT22;4762;48.128;11.376;2023-02-28T01:18:52;-4.00;99.90
9448;DHT22;4762;48.128;11.376;2023-02-28T01:20:54;-4.00;99.90
9448;DHT22;4762;48.128;11.376;2023-02-28T01:22:56;-4.10;99.90
9448;DHT22;4762;48.128;11.376;2023-02-28T01:24:59;-4.00;99.90
9448;DHT22;4762;48.128;11.376;2023-02-28T01:27:01;-4.00;99.90
9448;DHT22;4762;48.128;11.376;2023-02-28T01:29:03;-4.10;99.90
9448;DHT22;4762;48.128;11.376;2023-02-28T01:31:06;-4.10;99.90
9448;DHT22;4762;48.128;11.376;2023-02-28T01:33:08;-4.10;99.90
9448;DHT22;4762;48.128;11.376;2023-02-28T01:35:10;-4.10;99.90
9448;DHT22;4762;48.128;11.376;2023-02-28T01:37:12;-4.10;99.90
9448;DHT22;4762;48.128;11.376;2023-02-28T01:39:15;-3.90;99.90
9448;DHT22;4762;48.128;11.376;2023-02-28T01:41:18;-4.00;99.90
9448;DHT22;4762;48.128;11.376;2023-02-28T01:43:28;-4.00;99.90
9448;DHT22;4762;48.128;11.376;2023-02-28T01:45:31;-4.10;99.90
9448;DHT22;4762;48.128;11.376;2023-02-28T01:47:36;-4.20;99.90
9448;DHT22;4762;48.128;11.376;2023-02-28T01:49:38;-4.10;99.90
9448;DHT22;4762;48.128;11.376;2023-02-28T01:51:42;-4.20;99.90
9448;DHT22;4762;48.128;11.376;2023-02-28T01:53:45;-4.30;99.90
9448;DHT22;4762;48.128;11.376;2023-02-28T01:55:47;-4.30;99.90
9448;DHT22;4762;48.128;11.376;2023-02-28T01:57:50;-4.40;99.90
9448;DHT22;4762;48.128;11.376;2023-02-28T01:59:55;-4.40;99.90
9448;DHT22;4762;48.128;11.376;2023-02-28T02:01:56;-4.40;99.90
9448;DHT22;4762;48.128;11.376;2023-02-28T02:04:00;-4.50;99.90
9448;DHT22;4762;48.128;11.376;2023-02-28T02:06:01;-4.40;99.90
9448;DHT22;4762;48.128;11.376;2023-02-28T02:08:05;-4.50;99.90
9448;DHT22;4762;48.128;11.376;2023-02-28T02:10:14;-4.40;99.90
9448;DHT22;4762;48.128;11.376;2023-02-28T02:12:40;-4.60;99.90
9448;DHT22;4762;48.128;11.376;2023-02-28T02:14:41;-4.60;99.90
9448;DHT22;4762;48.128;11.376;2023-02-28T02:20:29;-4.60;99.90
9448;DHT22;4762;48.128;11.376;2023-02-28T02:21:45;-4.60;99.90
9448;DHT22;4762;48.128;11.376;2023-02-28T02:23:56;-4.70;99.90
9448;DHT22;4762;48.128;11.376;2023-02-28T02:25:56;-4.80;99.90
9448;DHT22;4762;48.128;11.376;2023-02-28T02:28:22;-4.70;99.90
9448;DHT22;4762;48.128;11.376;2023-02-28T02:30:30;-4.70;99.90
9448;DHT22;4762;48.128;11.376;2023-02-28T02:32:42;-4.70;99.90
9448;DHT22;4762;48.128;11.376;2023-02-28T02:34:58;-4.70;99.90
9448;DHT22;4762;48.128;11.376;2023-02-28T02:37:21;-4.80;99.90
9448;DHT22;4762;48.128;11.376;2023-02-28T02:41:46;-4.80;99.90
9448;DHT22;4762;48.128;11.376;2023-02-28T02:43:50;-4.80;99.90
9448;DHT22;4762;48.128;11.376;2023-02-28T02:45:53;-4.80;99.90
9448;DHT22;4762;48.128;11.376;2023-02-28T02:47:55;-4.80;99.90
9448;DHT22;4762;48.128;11.376;2023-02-28T02:49:57;-4.80;99.90
9448;DHT22;4762;48.128;11.376;2023-02-28T02:52:03;-4.90;99.90
9448;DHT22;4762;48.128;11.376;2023-02-28T02:54:09;-4.80;99.90
9448;DHT22;4762;48.128;11.376;2023-02-28T02:56:10;-4.90;99.90
9448;DHT22;4762;48.128;11.376;2023-02-28T02:58:14;-4.90;99.90
9448;DHT22;4762;48.128;11.376;2023-02-28T03:00:16;-4.80;99.90
9448;DHT22;4762;48.128;11.376;2023-02-28T03:02:18;-4.80;99.90
9448;DHT22;4762;48.128;11.376;2023-02-28T03:04:21;-4.80;99.90
9448;DHT22;4762;48.128;11.376;2023-02-28T03:06:23;-4.90;99.90
9448;DHT22;4762;48.128;11.376;2023-02-28T03:08:27;-5.00;99.90
9448;DHT22;4762;48.128;11.376;2023-02-28T03:10:37;-4.90;99.90
9448;DHT22;4762;48.128;11.376;2023-02-28T03:12:41;-4.90;99.90
9448;DHT22;4762;48.128;11.376;2023-02-28T03:15:07;-4.90;99.90
9448;DHT22;4762;48.128;11.376;2023-02-28T03:17:16;-4.90;99.90
9448;DHT22;4762;48.128;11.376;2023-02-28T03:19:28;-4.90;99.90
9448;DHT22;4762;48.128;11.376;2023-02-28T03:24:11;-5.00;99.90
9448;DHT22;4762;48.128;11.376;2023-02-28T03:26:18;-4.90;99.90
9448;DHT22;4762;48.128;11.376;2023-02-28T03:28:38;-4.80;99.90
9448;DHT22;4762;48.128;11.376;2023-02-28T03:30:45;-4.90;99.90
9448;DHT22;4762;48.128;11.376;2023-02-28T03:32:58;-5.00;99.90
9448;DHT22;4762;48.128;11.376;2023-02-28T03:35:08;-4.90;99.90
9448;DHT22;4762;48.128;11.376;2023-02-28T03:37:10;-5.00;99.90
9448;DHT22;4762;48.128;11.376;2023-02-28T03:39:31;-5.00;99.90
9448;DHT22;4762;48.128;11.376;2023-02-28T03:41:36;-5.00;99.90
9448;DHT22;4762;48.128;11.376;2023-02-28T03:43:40;-5.00;99.90
9448;DHT22;4762;48.128;11.376;2023-02-28T03:45:40;-5.00;99.90
9448;DHT22;4762;48.128;11.376;2023-02-28T03:47:46;-5.00;99.90
9448;DHT22;4762;48.128;11.376;2023-02-28T03:49:49;-5.10;99.90
9448;DHT22;4762;48.128;11.376;2023-02-28T03:51:50;-5.10;99.90
9448;DHT22;4762;48.128;11.376;2023-02-28T03:53:54;-5.10;99.90
9448;DHT22;4762;48.128;11.376;2023-02-28T03:55:59;-5.00;99.90
9448;DHT22;4762;48.128;11.376;2023-02-28T04:00:17;-5.10;99.90
9448;DHT22;4762;48.128;11.376;2023-02-28T04:02:18;-5.10;99.90
9448;DHT22;4762;48.128;11.376;2023-02-28T04:04:20;-5.10;99.90
9448;DHT22;4762;48.128;11.376;2023-02-28T04:06:22;-5.10;99.90
9448;DHT22;4762;48.128;11.376;2023-02-28T04:08:25;-5.20;99.90
9448;DHT22;4762;48.128;11.376;2023-02-28T04:10:28;-5.30;99.90
9448;DHT22;4762;48.128;11.376;2023-02-28T04:12:33;-5.30;99.90
9448;DHT22;4762;48.128;11.376;2023-02-28T04:14:36;-5.20;99.90
9448;DHT22;4762;48.128;11.376;2023-02-28T04:16:39;-5.10;99.90
9448;DHT22;4762;48.128;11.376;2023-02-28T04:18:41;-5.00;99.90
9448;DHT22;4762;48.128;11.376;2023-02-28T04:20:42;-4.90;99.90
9448;DHT22;4762;48.128;11.376;2023-02-28T04:22:45;-4.90;99.90
9448;DHT22;4762;48.128;11.376;2023-02-28T04:24:47;-4.80;99.90
9448;DHT22;4762;48.128;11.376;2023-02-28T04:26:51;-4.70;99.90
9448;DHT22;4762;48.128;11.376;2023-02-28T04:28:52;-4.70;99.90
9448;DHT22;4762;48.128;11.376;2023-02-28T04:30:55;-4.60;99.90
9448;DHT22;4762;48.128;11.376;2023-02-28T04:32:56;-4.60;99.90
9448;DHT22;4762;48.128;11.376;2023-02-28T04:34:58;-4.50;99.90
9448;DHT22;4762;48.128;11.376;2023-02-28T04:37:01;-4.50;99.90
9448;DHT22;4762;48.128;11.376;2023-02-28T04:39:03;-4.40;99.90
9448;DHT22;4762;48.128;11.376;2023-02-28T04:41:05;-4.40;99.90
9448;DHT22;4762;48.128;11.376;2023-02-28T04:43:08;-4.30;99.90
9448;DHT22;4762;48.128;11.376;2023-02-28T04:45:10;-4.30;99.90
9448;DHT22;4762;48.128;11.376;2023-02-28T04:47:12;-4.20;99.90
9448;DHT22;4762;48.128;11.376;2023-02-28T04:49:15;-4.30;99.90
9448;DHT22;4762;48.128;11.376;2023-02-28T04:51:17;-4.20;99.90
9448;DHT22;4762;48.128;11.376;2023-02-28T04:53:19;-4.20;99.90
9448;DHT22;4762;48.128;11.376;2023-02-28T04:55:21;-4.10;99.90
9448;DHT22;4762;48.128;11.376;2023-02-28T04:57:24;-4.10;99.90
9448;DHT22;4762;48.128;11.376;2023-02-28T04:59:26;-4.10;99.90
9448;DHT22;4762;48.128;11.376;2023-02-28T05:01:30;-4.00;99.90
9448;DHT22;4762;48.128;11.376;2023-02-28T05:03:31;-4.00;99.90
9448;DHT22;4762;48.128;11.376;2023-02-28T05:05:33;-4.00;99.90
9448;DHT22;4762;48.128;11.376;2023-02-28T05:07:36;-4.00;99.90
9448;DHT22;4762;48.128;11.376;2023-02-28T05:09:38;-3.90;99.90
9448;DHT22;4762;48.128;11.376;2023-02-28T05:11:40;-4.00;99.90
9448;DHT22;4762;48.128;11.376;2023-02-28T05:13:43;-3.90;99.90
9448;DHT22;4762;48.128;11.376;2023-02-28T05:15:45;-3.90;99.90
9448;DHT22;4762;48.128;11.376;2023-02-28T05:17:47;-3.80;99.90
9448;DHT22;4762;48.128;11.376;2023-02-28T05:19:49;-3.80;99.90
9448;DHT22;4762;48.128;11.376;2023-02-28T05:21:53;-3.80;99.90
9448;DHT22;4762;48.128;11.376;2023-02-28T05:23:55;-3.80;99.90
9448;DHT22;4762;48.128;11.376;2023-02-28T05:25:57;-3.80;99.90
9448;DHT22;4762;48.128;11.376;2023-02-28T05:27:59;-3.70;99.90
9448;DHT22;4762;48.128;11.376;2023-02-28T05:30:01;-3.70;99.90
9448;DHT22;4762;48.128;11.376;2023-02-28T05:32:04;-3.70;99.90
9448;DHT22;4762;48.128;11.376;2023-02-28T05:34:06;-3.60;99.90
9448;DHT22;4762;48.128;11.376;2023-02-28T05:36:08;-3.60;99.90
9448;DHT22;4762;48.128;11.376;2023-02-28T05:38:11;-3.60;99.90
9448;DHT22;4762;48.128;11.376;2023-02-28T05:40:13;-3.50;99.90
9448;DHT22;4762;48.128;11.376;2023-02-28T05:42:15;-3.60;99.90
9448;DHT22;4762;48.128;11.376;2023-02-28T05:44:17;-3.50;99.90
9448;DHT22;4762;48.128;11.376;2023-02-28T05:46:20;-3.40;99.90
9448;DHT22;4762;48.128;11.376;2023-02-28T05:48:22;-3.50;99.90
9448;DHT22;4762;48.128;11.376;2023-02-28T05:50:24;-3.40;99.90
9448;DHT22;4762;48.128;11.376;2023-02-28T05:52:27;-3.40;99.90
9448;DHT22;4762;48.128;11.376;2023-02-28T05:54:29;-3.40;99.90
9448;DHT22;4762;48.128;11.376;2023-02-28T05:56:31;-3.40;99.90
9448;DHT22;4762;48.128;11.376;2023-02-28T05:58:33;-3.30;99.90
9448;DHT22;4762;48.128;11.376;2023-02-28T06:00:35;-3.30;99.90
9448;DHT22;4762;48.128;11.376;2023-02-28T06:02:38;-3.30;99.90
9448;DHT22;4762;48.128;11.376;2023-02-28T06:04:40;-3.30;99.90
9448;DHT22;4762;48.128;11.376;2023-02-28T06:06:43;-3.20;99.90
9448;DHT22;4762;48.128;11.376;2023-02-28T06:08:45;-3.20;99.90
9448;DHT22;4762;48.128;11.376;2023-02-28T06:10:47;-3.20;99.90
9448;DHT22;4762;48.128;11.376;2023-02-28T06:12:49;-3.20;99.90
9448;DHT22;4762;48.128;11.376;2023-02-28T06:14:51;-3.20;99.90
9448;DHT22;4762;48.128;11.376;2023-02-28T06:16:54;-3.20;99.90
9448;DHT22;4762;48.128;11.376;2023-02-28T06:18:57;-3.20;99.90
9448;DHT22;4762;48.128;11.376;2023-02-28T06:20:59;-3.20;99.90
9448;DHT22;4762;48.128;11.376;2023-02-28T06:23:01;-3.20;99.90
9448;DHT22;4762;48.128;11.376;2023-02-28T06:25:04;-3.20;99.90
9448;DHT22;4762;48.128;11.376;2023-02-28T06:27:06;-3.20;99.90
9448;DHT22;4762;48.128;11.376;2023-02-28T06:29:09;-3.10;99.90
9448;DHT22;4762;48.128;11.376;2023-02-28T06:31:12;-3.10;99.90
9448;DHT22;4762;48.128;11.376;2023-02-28T06:33:13;-3.10;99.90
9448;DHT22;4762;48.128;11.376;2023-02-28T06:35:16;-3.10;99.90
9448;DHT22;4762;48.128;11.376;2023-02-28T06:37:18;-3.10;99.90
9448;DHT22;4762;48.128;11.376;2023-02-28T06:39:20;-3.10;99.90
9448;DHT22;4762;48.128;11.376;2023-02-28T06:41:24;-3.10;99.90
9448;DHT22;4762;48.128;11.376;2023-02-28T06:43:27;-3.10;99.90
9448;DHT22;4762;48.128;11.376;2023-02-28T06:45:28;-3.10;99.90
9448;DHT22;4762;48.128;11.376;2023-02-28T06:47:30;-3.00;99.90
9448;DHT22;4762;48.128;11.376;2023-02-28T06:49:33;-3.00;99.90
9448;DHT22;4762;48.128;11.376;2023-02-28T06:51:35;-3.00;99.90
9448;DHT22;4762;48.128;11.376;2023-02-28T06:53:37;-3.00;99.90
9448;DHT22;4762;48.128;11.376;2023-02-28T06:55:39;-2.90;99.90
9448;DHT22;4762;48.128;11.376;2023-02-28T06:57:41;-2.90;99.90
9448;DHT22;4762;48.128;11.376;2023-02-28T06:59:44;-3.00;99.90
9448;DHT22;4762;48.128;11.376;2023-02-28T07:01:48;-3.00;99.90
9448;DHT22;4762;48.128;11.376;2023-02-28T07:03:50;-2.90;99.90
9448;DHT22;4762;48.128;11.376;2023-02-28T07:05:52;-2.80;99.90
9448;DHT22;4762;48.128;11.376;2023-02-28T07:07:55;-2.80;99.90
9448;DHT22;4762;48.128;11.376;2023-02-28T07:09:58;-2.80;99.90
9448;DHT22;4762;48.128;11.376;2023-02-28T07:12:01;-2.80;99.90
9448;DHT22;4762;48.128;11.376;2023-02-28T07:14:03;-2.80;99.90
9448;DHT22;4762;48.128;11.376;2023-02-28T07:16:07;-2.70;99.90
9448;DHT22;4762;48.128;11.376;2023-02-28T07:18:08;-2.70;99.90
9448;DHT22;4762;48.128;11.376;2023-02-28T07:20:11;-2.70;99.90
9448;DHT22;4762;48.128;11.376;2023-02-28T07:22:14;-2.70;99.90
9448;DHT22;4762;48.128;11.376;2023-02-28T07:24:17;-2.70;99.90
9448;DHT22;4762;48.128;11.376;2023-02-28T07:26:19;-2.70;99.90
9448;DHT22;4762;48.128;11.376;2023-02-28T07:28:21;-2.80;99.90
9448;DHT22;4762;48.128;11.376;2023-02-28T07:30:23;-2.70;99.90
9448;DHT22;4762;48.128;11.376;2023-02-28T07:32:26;-2.70;99.90
9448;DHT22;4762;48.128;11.376;2023-02-28T07:34:28;-2.70;99.90
9448;DHT22;4762;48.128;11.376;2023-02-28T07:36:30;-2.70;99.90
9448;DHT22;4762;48.128;11.376;2023-02-28T07:38:34;-2.70;99.90
9448;DHT22;4762;48.128;11.376;2023-02-28T07:40:36;-2.60;99.90
9448;DHT22;4762;48.128;11.376;2023-02-28T07:42:40;-2.50;99.90
9448;DHT22;4762;48.128;11.376;2023-02-28T07:44:42;-2.50;99.90
9448;DHT22;4762;48.128;11.376;2023-02-28T07:46:44;-2.50;99.90
9448;DHT22;4762;48.128;11.376;2023-02-28T07:48:46;-2.60;99.90
9448;DHT22;4762;48.128;11.376;2023-02-28T07:50:56;-2.50;99.90
9448;DHT22;4762;48.128;11.376;2023-02-28T07:52:59;-2.50;99.90
9448;DHT22;4762;48.128;11.376;2023-02-28T07:55:01;-2.40;99.90
9448;DHT22;4762;48.128;11.376;2023-02-28T07:57:03;-2.40;99.90
9448;DHT22;4762;48.128;11.376;2023-02-28T07:59:05;-2.30;99.90
9448;DHT22;4762;48.128;11.376;2023-02-28T08:01:08;-2.30;99.90
9448;DHT22;4762;48.128;11.376;2023-02-28T08:03:11;-2.20;99.90
9448;DHT22;4762;48.128;11.376;2023-02-28T08:05:13;-2.10;99.90
9448;DHT22;4762;48.128;11.376;2023-02-28T08:07:16;-2.30;99.90
9448;DHT22;4762;48.128;11.376;2023-02-28T08:09:18;-2.30;99.90
9448;DHT22;4762;48.128;11.376;2023-02-28T08:11:20;-2.30;99.90
9448;DHT22;4762;48.128;11.376;2023-02-28T08:13:22;-2.10;99.90
9448;DHT22;4762;48.128;11.376;2023-02-28T08:15:24;-2.00;99.90
9448;DHT22;4762;48.128;11.376;2023-02-28T08:17:28;-2.00;99.90
9448;DHT22;4762;48.128;11.376;2023-02-28T08:19:30;-1.90;99.90
9448;DHT22;4762;48.128;11.376;2023-02-28T08:21:33;-2.00;99.90
9448;DHT22;4762;48.128;11.376;2023-02-28T08:23:35;-2.10;99.90
9448;DHT22;4762;48.128;11.376;2023-02-28T08:25:38;-2.00;99.90
9448;DHT22;4762;48.128;11.376;2023-02-28T08:27:41;-2.00;99.90
9448;DHT22;4762;48.128;11.376;2023-02-28T08:29:43;-2.00;99.90
9448;DHT22;4762;48.128;11.376;2023-02-28T08:31:46;-2.00;99.90
9448;DHT22;4762;48.128;11.376;2023-02-28T08:33:48;-1.80;99.90
9448;DHT22;4762;48.128;11.376;2023-02-28T08:35:53;-1.80;99.90
9448;DHT22;4762;48.128;11.376;2023-02-28T08:37:54;-1.80;99.90
9448;DHT22;4762;48.128;11.376;2023-02-28T08:39:57;-1.80;99.90
9448;DHT22;4762;48.128;11.376;2023-02-28T08:41:59;-1.70;99.90
9448;DHT22;4762;48.128;11.376;2023-02-28T08:44:01;-1.60;99.90
9448;DHT22;4762;48.128;11.376;2023-02-28T08:46:04;-1.60;99.90
9448;DHT22;4762;48.128;11.376;2023-02-28T08:48:06;-1.50;99.90
9448;DHT22;4762;48.128;11.376;2023-02-28T08:50:09;-1.30;99.90
9448;DHT22;4762;48.128;11.376;2023-02-28T08:52:11;-1.30;99.90
9448;DHT22;4762;48.128;11.376;2023-02-28T08:54:13;-1.40;99.90
9448;DHT22;4762;48.128;11.376;2023-02-28T08:56:16;-1.50;99.90
9448;DHT22;4762;48.128;11.376;2023-02-28T08:58:18;-1.40;99.90
9448;DHT22;4762;48.128;11.376;2023-02-28T09:00:21;-1.30;99.90
9448;DHT22;4762;48.128;11.376;2023-02-28T09:02:23;-1.40;99.90
9448;DHT22;4762;48.128;11.376;2023-02-28T09:04:26;-1.40;99.90
9448;DHT22;4762;48.128;11.376;2023-02-28T09:06:28;-1.40;99.90
9448;DHT22;4762;48.128;11.376;2023-02-28T09:08:30;-1.40;99.90
9448;DHT22;4762;48.128;11.376;2023-02-28T09:10:32;-1.30;99.90
9448;DHT22;4762;48.128;11.376;2023-02-28T09:12:35;-1.50;99.90
9448;DHT22;4762;48.128;11.376;2023-02-28T09:14:37;-1.40;99.90
9448;DHT22;4762;48.128;11.376;2023-02-28T09:16:39;-1.30;99.90
9448;DHT22;4762;48.128;11.376;2023-02-28T09:18:42;-1.30;99.90
9448;DHT22;4762;48.128;11.376;2023-02-28T09:20:44;-1.20;99.90
9448;DHT22;4762;48.128;11.376;2023-02-28T09:22:46;-1.10;99.90
9448;DHT22;4762;48.128;11.376;2023-02-28T09:24:48;-1.10;99.90
9448;DHT22;4762;48.128;11.376;2023-02-28T09:26:50;-1.00;99.90
9448;DHT22;4762;48.128;11.376;2023-02-28T09:28:53;-1.20;99.90
9448;DHT22;4762;48.128;11.376;2023-02-28T09:30:55;-1.30;99.90
9448;DHT22;4762;48.128;11.376;2023-02-28T09:32:57;-1.20;99.90
9448;DHT22;4762;48.128;11.376;2023-02-28T09:34:59;-1.20;99.90
9448;DHT22;4762;48.128;11.376;2023-02-28T09:37:02;-1.10;99.90
9448;DHT22;4762;48.128;11.376;2023-02-28T09:39:04;-0.90;99.90
9448;DHT22;4762;48.128;11.376;2023-02-28T09:41:14;-1.10;99.90
9448;DHT22;4762;48.128;11.376;2023-02-28T09:43:16;-1.00;99.90
9448;DHT22;4762;48.128;11.376;2023-02-28T09:45:30;-0.90;99.90
9448;DHT22;4762;48.128;11.376;2023-02-28T09:47:34;-1.00;99.90
9448;DHT22;4762;48.128;11.376;2023-02-28T09:49:37;-1.10;99.90
9448;DHT22;4762;48.128;11.376;2023-02-28T09:51:56;-1.00;99.90
9448;DHT22;4762;48.128;11.376;2023-02-28T09:53:57;-0.80;99.90
9448;DHT22;4762;48.128;11.376;2023-02-28T09:56:03;-0.60;99.90
9448;DHT22;4762;48.128;11.376;2023-02-28T09:58:03;-0.80;99.90
9448;DHT22;4762;48.128;11.376;2023-02-28T10:00:14;-0.60;99.90
9448;DHT22;4762;48.128;11.376;2023-02-28T10:02:35;-0.40;99.90
9448;DHT22;4762;48.128;11.376;2023-02-28T10:04:35;-0.50;99.90
9448;DHT22;4762;48.128;11.376;2023-02-28T10:06:33;-0.30;99.90
9448;DHT22;4762;48.128;11.376;2023-02-28T10:08:38;-0.10;99.90
9448;DHT22;4762;48.128;11.376;2023-02-28T10:10:42;-0.20;99.90
9448;DHT22;4762;48.128;11.376;2023-02-28T10:12:44;-0.20;99.90
9448;DHT22;4762;48.128;11.376;2023-02-28T10:14:46;0.20;99.90
9448;DHT22;4762;48.128;11.376;2023-02-28T10:16:56;0.20;99.90
9448;DHT22;4762;48.128;11.376;2023-02-28T10:19:20;0.10;99.90
9448;DHT22;4762;48.128;11.376;2023-02-28T10:21:21;0.00;99.90
9448;DHT22;4762;48.128;11.376;2023-02-28T10:23:25;0.00;99.90
9448;DHT22;4762;48.128;11.376;2023-02-28T10:25:27;0.10;99.90
9448;DHT22;4762;48.128;11.376;2023-02-28T10:27:30;0.20;99.90
9448;DHT22;4762;48.128;11.376;2023-02-28T10:29:31;0.20;99.90
9448;DHT22;4762;48.128;11.376;2023-02-28T10:31:33;0.20;99.90
9448;DHT22;4762;48.128;11.376;2023-02-28T10:33:36;0.30;99.90
9448;DHT22;4762;48.128;11.376;2023-02-28T10:35:38;0.60;99.90
9448;DHT22;4762;48.128;11.376;2023-02-28T10:37:41;0.90;99.90
9448;DHT22;4762;48.128;11.376;2023-02-28T10:39:44;0.60;99.90
9448;DHT22;4762;48.128;11.376;2023-02-28T10:41:46;0.60;99.90
9448;DHT22;4762;48.128;11.376;2023-02-28T10:43:48;0.50;99.90
9448;DHT22;4762;48.128;11.376;2023-02-28T10:45:57;0.50;99.90
9448;DHT22;4762;48.128;11.376;2023-02-28T10:50:02;0.90;99.90
9448;DHT22;4762;48.128;11.376;2023-02-28T10:52:07;0.90;99.90
9448;DHT22;4762;48.128;11.376;2023-02-28T10:54:23;0.60;99.90
9448;DHT22;4762;48.128;11.376;2023-02-28T10:56:24;0.50;99.90
9448;DHT22;4762;48.128;11.376;2023-02-28T10:58:31;0.60;99.90
9448;DHT22;4762;48.128;11.376;2023-02-28T11:00:34;1.10;99.90
9448;DHT22;4762;48.128;11.376;2023-02-28T11:02:36;1.00;99.90
9448;DHT22;4762;48.128;11.376;2023-02-28T11:04:37;1.00;99.90
9448;DHT22;4762;48.128;11.376;2023-02-28T11:06:39;0.90;99.90
9448;DHT22;4762;48.128;11.376;2023-02-28T11:08:46;0.80;99.90
9448;DHT22;4762;48.128;11.376;2023-02-28T11:10:48;0.80;99.90
9448;DHT22;4762;48.128;11.376;2023-02-28T11:12:53;1.10;99.90
9448;DHT22;4762;48.128;11.376;2023-02-28T11:15:00;1.40;99.90
9448;DHT22;4762;48.128;11.376;2023-02-28T11:17:11;1.20;99.90
9448;DHT22;4762;48.128;11.376;2023-02-28T11:19:04;1.10;99.90
9448;DHT22;4762;48.128;11.376;2023-02-28T11:21:05;1.30;99.90
9448;DHT22;4762;48.128;11.376;2023-02-28T11:23:11;1.00;99.90
9448;DHT22;4762;48.128;11.376;2023-02-28T11:27:26;0.50;99.90
9448;DHT22;4762;48.128;11.376;2023-02-28T11:29:31;0.90;99.90
9448;DHT22;4762;48.128;11.376;2023-02-28T11:31:33;1.30;99.90
9448;DHT22;4762;48.128;11.376;2023-02-28T11:33:56;1.20;99.90
9448;DHT22;4762;48.128;11.376;2023-02-28T11:36:03;1.10;99.90
9448;DHT22;4762;48.128;11.376;2023-02-28T11:38:04;1.00;99.90
9448;DHT22;4762;48.128;11.376;2023-02-28T11:40:13;1.40;99.90
9448;DHT22;4762;48.128;11.376;2023-02-28T11:44:37;2.50;99.90
9448;DHT22;4762;48.128;11.376;2023-02-28T11:46:48;2.20;99.90
9448;DHT22;4762;48.128;11.376;2023-02-28T11:48:58;3.00;99.90
9448;DHT22;4762;48.128;11.376;2023-02-28T11:51:12;3.50;99.90
9448;DHT22;4762;48.128;11.376;2023-02-28T11:53:14;4.00;99.90
9448;DHT22;4762;48.128;11.376;2023-02-28T11:55:25;4.10;99.90
9448;DHT22;4762;48.128;11.376;2023-02-28T11:57:38;4.60;99.90
9448;DHT22;4762;48.128;11.376;2023-02-28T11:59:47;4.80;99.90
9448;DHT22;4762;48.128;11.376;2023-02-28T12:04:15;5.30;99.90
9448;DHT22;4762;48.128;11.376;2023-02-28T12:06:18;5.60;99.90
9448;DHT22;4762;48.128;11.376;2023-02-28T12:08:26;5.70;98.40
9448;DHT22;4762;48.128;11.376;2023-02-28T12:10:27;5.20;98.50
9448;DHT22;4762;48.128;11.376;2023-02-28T12:12:36;5.40;99.90
9448;DHT22;4762;48.128;11.376;2023-02-28T12:17:02;5.50;99.30
9448;DHT22;4762;48.128;11.376;2023-02-28T12:19:19;5.70;98.80
9448;DHT22;4762;48.128;11.376;2023-02-28T12:21:30;5.60;97.30
9448;DHT22;4762;48.128;11.376;2023-02-28T12:23:38;5.80;96.80
9448;DHT22;4762;48.128;11.376;2023-02-28T12:25:47;5.00;97.30
9448;DHT22;4762;48.128;11.376;2023-02-28T12:27:46;4.10;99.00
9448;DHT22;4762;48.128;11.376;2023-02-28T12:29:50;4.20;99.80
9448;DHT22;4762;48.128;11.376;2023-02-28T12:31:55;4.10;99.90
9448;DHT22;4762;48.128;11.376;2023-02-28T12:33:59;4.40;99.90
9448;DHT22;4762;48.128;11.376;2023-02-28T12:35:59;4.70;99.90
9448;DHT22;4762;48.128;11.376;2023-02-28T12:38:04;4.80;97.80
9448;DHT22;4762;48.128;11.376;2023-02-28T12:40:10;4.50;97.60
9448;DHT22;4762;48.128;11.376;2023-02-28T12:42:11;4.10;97.70
9448;DHT22;4762;48.128;11.376;2023-02-28T12:44:15;3.80;99.20
9448;DHT22;4762;48.128;11.376;2023-02-28T12:46:34;4.00;98.40
9448;DHT22;4762;48.128;11.376;2023-02-28T12:48:43;4.40;98.20
9448;DHT22;4762;48.128;11.376;2023-02-28T12:50:44;4.20;98.20
9448;DHT22;4762;48.128;11.376;2023-02-28T12:52:56;5.20;99.40
9448;DHT22;4762;48.128;11.376;2023-02-28T12:55:00;5.30;96.20
9448;DHT22;4762;48.128;11.376;2023-02-28T12:57:12;4.90;97.00
9448;DHT22;4762;48.128;11.376;2023-02-28T12:59:25;5.00;98.60
9448;DHT22;4762;48.128;11.376;2023-02-28T13:01:42;5.40;96.20
9448;DHT22;4762;48.128;11.376;2023-02-28T13:03:47;5.30;95.10
9448;DHT22;4762;48.128;11.376;2023-02-28T13:05:59;5.40;96.00
9448;DHT22;4762;48.128;11.376;2023-02-28T13:10:07;6.10;94.00
9448;DHT22;4762;48.128;11.376;2023-02-28T13:12:13;6.30;93.30
9448;DHT22;4762;48.128;11.376;2023-02-28T13:14:36;5.20;91.50
9448;DHT22;4762;48.128;11.376;2023-02-28T13:16:49;4.50;95.10
9448;DHT22;4762;48.128;11.376;2023-02-28T13:18:50;4.60;94.60
9448;DHT22;4762;48.128;11.376;2023-02-28T13:20:52;4.30;94.30
9448;DHT22;4762;48.128;11.376;2023-02-28T13:22:54;4.50;95.40
9448;DHT22;4762;48.128;11.376;2023-02-28T13:24:57;4.20;95.00
9448;DHT22;4762;48.128;11.376;2023-02-28T13:27:23;4.20;96.60
9448;DHT22;4762;48.128;11.376;2023-02-28T13:29:30;4.30;95.00
9448;DHT22;4762;48.128;11.376;2023-02-28T13:31:30;4.00;96.30
9448;DHT22;4762;48.128;11.376;2023-02-28T13:33:34;3.80;95.70
9448;DHT22;4762;48.128;11.376;2023-02-28T13:35:37;3.50;95.90
9448;DHT22;4762;48.128;11.376;2023-02-28T13:37:43;3.40;97.10
9448;DHT22;4762;48.128;11.376;2023-02-28T13:39:46;3.40;96.90
9448;DHT22;4762;48.128;11.376;2023-02-28T13:41:47;3.50;98.20
9448;DHT22;4762;48.128;11.376;2023-02-28T13:43:59;4.00;97.90